createdAt,value
2023-02-24T00:00:00.619Z,90.4
2023-02-24T00:01:00.555Z,90.4
2023-02-24T00:02:00.573Z,90.7
2023-02-24T00:03:00.564Z,91
2023-02-24T00:04:00.594Z,90.7
2023-02-24T00:05:00.540Z,90.3
2023-02-24T00:06:00.540Z,90.3
2023-02-24T00:07:00.556Z,90.4
2023-02-24T00:08:00.550Z,90.4
2023-02-24T00:09:00.589Z,90.3
2023-02-24T00:10:00.572Z,91
2023-02-24T00:11:00.555Z,91
2023-02-24T00:12:00.577Z,91
2023-02-24T00:13:00.558Z,91
2023-02-24T00:14:00.570Z,90.9
2023-02-24T00:15:00.552Z,91
2023-02-24T00:16:00.595Z,91.3
2023-02-24T00:17:00.599Z,91.2
2023-02-24T00:18:00.577Z,91.3
2023-02-24T00:19:00.575Z,91.6
2023-02-24T00:20:00.569Z,91.6
2023-02-24T00:21:00.545Z,91.6
2023-02-24T00:22:00.562Z,91.6
2023-02-24T00:23:00.599Z,91.6
2023-02-24T00:24:00.572Z,91.2
2023-02-24T00:25:00.580Z,91.6
2023-02-24T00:26:00.565Z,91.5
2023-02-24T00:27:00.559Z,91.5
2023-02-24T00:28:00.581Z,91.5
2023-02-24T00:29:00.583Z,91.8
2023-02-24T00:30:00.658Z,91.9
2023-02-24T00:31:00.652Z,92.1
2023-02-24T00:32:00.941Z,92.2
2023-02-24T00:33:01.653Z,92.2
2023-02-24T00:34:00.598Z,92.2
2023-02-24T00:35:00.603Z,92.1
2023-02-24T00:36:00.571Z,91.9
2023-02-24T00:37:00.593Z,92.2
2023-02-24T00:38:00.642Z,91.9
2023-02-24T00:39:00.607Z,91.8
2023-02-24T00:40:00.708Z,91.5
2023-02-24T00:41:00.590Z,91.5
2023-02-24T00:42:00.654Z,91.5
2023-02-24T00:43:00.607Z,91.5
2023-02-24T00:44:00.623Z,91.5
2023-02-24T00:45:00.630Z,91.5
2023-02-24T00:46:00.648Z,91.5
2023-02-24T00:47:00.590Z,91.5
2023-02-24T00:48:00.614Z,91.8
2023-02-24T00:49:00.610Z,92.1
2023-02-24T00:50:00.794Z,92.1
2023-02-24T00:51:00.599Z,92.1
2023-02-24T00:52:00.612Z,92.4
2023-02-24T00:53:00.629Z,92.4
2023-02-24T00:54:00.739Z,92.4
2023-02-24T00:55:00.665Z,92.4
2023-02-24T00:56:00.625Z,92.4
2023-02-24T00:57:00.612Z,92.7
2023-02-24T00:58:00.623Z,92.4
2023-02-24T00:59:00.621Z,92.7
2023-02-24T01:00:00.885Z,92.4
2023-02-24T01:01:00.607Z,92.4
2023-02-24T01:02:00.801Z,92.7
2023-02-24T01:03:00.632Z,92.7
2023-02-24T01:04:00.652Z,92.7
2023-02-24T01:05:00.700Z,92.7
2023-02-24T01:06:00.658Z,92.7
2023-02-24T01:07:00.798Z,92.7
2023-02-24T01:08:00.699Z,92.7
2023-02-24T01:09:00.694Z,92.7
2023-02-24T01:10:00.950Z,92.4
2023-02-24T01:11:00.817Z,92.7
2023-02-24T01:12:00.743Z,92.7
2023-02-24T01:13:00.620Z,92.7
2023-02-24T01:14:00.625Z,92.7
2023-02-24T01:15:00.731Z,93
2023-02-24T01:16:00.693Z,92.7
2023-02-24T01:17:00.633Z,92.7
2023-02-24T01:18:00.628Z,92.7
2023-02-24T01:19:00.686Z,93
2023-02-24T01:20:00.822Z,93.1
2023-02-24T01:21:00.636Z,93.4
2023-02-24T01:22:00.710Z,93.4
2023-02-24T01:23:00.655Z,93.7
2023-02-24T01:24:00.637Z,93.7
2023-02-24T01:25:00.749Z,94
2023-02-24T01:26:00.648Z,94
2023-02-24T01:27:00.756Z,94
2023-02-24T01:28:00.684Z,94
2023-02-24T01:29:00.904Z,94
2023-02-24T01:30:01.002Z,94.1
2023-02-24T01:31:01.011Z,94.1
2023-02-24T01:32:01.009Z,94.1
2023-02-24T01:33:01.069Z,94.1
2023-02-24T01:34:00.737Z,93.8
2023-02-24T01:35:00.866Z,93.8
2023-02-24T01:36:00.893Z,93.8
2023-02-24T01:37:00.867Z,93.8
2023-02-24T01:38:00.815Z,93.5
2023-02-24T01:39:00.674Z,93.5
2023-02-24T01:40:00.846Z,93.5
2023-02-24T01:41:00.768Z,93.5
2023-02-24T01:42:00.700Z,93.5
2023-02-24T01:43:00.812Z,93.5
2023-02-24T01:44:00.653Z,93.2
2023-02-24T01:45:00.878Z,93.2
2023-02-24T01:46:00.838Z,92.9
2023-02-24T01:47:00.692Z,93.2
2023-02-24T01:48:00.659Z,93.2
2023-02-24T01:49:00.664Z,93.5
2023-02-24T01:50:00.808Z,93.2
2023-02-24T01:51:00.684Z,93.2
2023-02-24T01:52:00.672Z,92.9
2023-02-24T01:53:00.694Z,92.9
2023-02-24T01:54:00.774Z,92.9
2023-02-24T01:55:00.700Z,92.9
2023-02-24T01:56:00.683Z,92.9
2023-02-24T01:57:00.673Z,92.9
2023-02-24T01:58:00.709Z,92.9
2023-02-24T01:59:00.687Z,92.9
2023-02-24T02:00:00.684Z,92.6
2023-02-24T02:01:00.720Z,92.9
2023-02-24T02:02:00.805Z,92.6
2023-02-24T02:03:00.764Z,92.6
2023-02-24T02:04:00.690Z,92.6
2023-02-24T02:05:00.708Z,92.6
2023-02-24T02:06:00.703Z,92.6
2023-02-24T02:07:00.677Z,92.3
2023-02-24T02:08:00.699Z,92.6
2023-02-24T02:09:00.707Z,92.3
2023-02-24T02:10:00.697Z,92.3
2023-02-24T02:11:00.716Z,92.3
2023-02-24T02:12:00.676Z,91.9
2023-02-24T02:13:00.677Z,91.9
2023-02-24T02:14:00.827Z,92.3
2023-02-24T02:15:00.780Z,92.2
2023-02-24T02:16:00.736Z,92.3
2023-02-24T02:17:00.681Z,92.2
2023-02-24T02:18:00.685Z,92.2
2023-02-24T02:19:00.754Z,92.2
2023-02-24T02:20:00.688Z,92.2
2023-02-24T02:21:00.697Z,91.9
2023-02-24T02:22:00.702Z,91.9
2023-02-24T02:23:00.726Z,91.9
2023-02-24T02:24:00.722Z,92.2
2023-02-24T02:25:00.758Z,92.2
2023-02-24T02:26:00.698Z,92.2
2023-02-24T02:27:00.711Z,92.2
2023-02-24T02:28:00.719Z,92.2
2023-02-24T02:29:00.707Z,92.2
2023-02-24T02:30:00.708Z,92.2
2023-02-24T02:31:00.792Z,92.2
2023-02-24T02:32:00.865Z,92.2
2023-02-24T02:33:00.717Z,92.2
2023-02-24T02:34:00.720Z,92.2
2023-02-24T02:35:00.716Z,92.2
2023-02-24T02:36:00.819Z,92.2
2023-02-24T02:37:00.731Z,92.2
2023-02-24T02:38:00.708Z,92.5
2023-02-24T02:39:00.724Z,92.8
2023-02-24T02:40:00.730Z,92.8
2023-02-24T02:41:00.715Z,93.4
2023-02-24T02:42:00.726Z,93.4
2023-02-24T02:43:00.717Z,92.8
2023-02-24T02:44:00.747Z,92.5
2023-02-24T02:45:00.705Z,91.9
2023-02-24T02:46:00.746Z,91.9
2023-02-24T02:47:00.743Z,91.8
2023-02-24T02:48:00.740Z,91.8
2023-02-24T02:49:00.782Z,91.5
2023-02-24T02:50:00.723Z,91.5
2023-02-24T02:51:00.750Z,91.5
2023-02-24T02:52:00.757Z,91.5
2023-02-24T02:53:00.719Z,91.5
2023-02-24T02:54:00.732Z,91.8
2023-02-24T02:55:00.754Z,92.1
2023-02-24T02:56:00.735Z,92.7
2023-02-24T02:57:00.731Z,93.3
2023-02-24T02:58:00.719Z,93.7
2023-02-24T02:59:00.754Z,94
2023-02-24T03:00:00.774Z,94
2023-02-24T03:01:01.556Z,94
2023-02-24T03:02:01.459Z,94
2023-02-24T03:03:01.443Z,94
2023-02-24T03:04:01.448Z,94
2023-02-24T03:05:01.573Z,94
2023-02-24T03:06:01.453Z,94
2023-02-24T03:07:01.426Z,94
2023-02-24T03:08:01.433Z,94
2023-02-24T03:09:01.465Z,94
2023-02-24T03:10:01.634Z,94
2023-02-24T03:11:01.475Z,94
2023-02-24T03:12:01.442Z,94.3
2023-02-24T03:13:01.432Z,94.3
2023-02-24T03:14:01.461Z,94.4
2023-02-24T03:15:01.453Z,94.3
2023-02-24T03:16:01.456Z,94.3
2023-02-24T03:17:01.442Z,94.3
2023-02-24T03:18:01.452Z,94
2023-02-24T03:19:01.459Z,94
2023-02-24T03:20:01.490Z,94
2023-02-24T03:21:01.460Z,94
2023-02-24T03:22:01.453Z,93.7
2023-02-24T03:23:01.445Z,93.4
2023-02-24T03:24:01.481Z,93.7
2023-02-24T03:25:01.473Z,93.4
2023-02-24T03:26:01.497Z,93.4
2023-02-24T03:27:01.467Z,93.4
2023-02-24T03:28:01.449Z,93.1
2023-02-24T03:29:01.491Z,93.1
2023-02-24T03:30:01.514Z,93.1
2023-02-24T03:31:01.545Z,93.1
2023-02-24T03:32:01.578Z,93.1
2023-02-24T03:33:01.490Z,93.1
2023-02-24T03:34:01.503Z,93.1
2023-02-24T03:35:01.463Z,93.1
2023-02-24T03:36:01.485Z,93.1
2023-02-24T03:37:01.457Z,93.1
2023-02-24T03:38:01.490Z,92.7
2023-02-24T03:39:01.483Z,93
2023-02-24T03:40:01.542Z,93.1
2023-02-24T03:41:01.506Z,93.1
2023-02-24T03:42:01.467Z,93
2023-02-24T03:43:01.503Z,93.4
2023-02-24T03:44:01.482Z,93.4
2023-02-24T03:45:01.488Z,93.4
2023-02-24T03:46:01.538Z,93.4
2023-02-24T03:47:01.495Z,93
2023-02-24T03:48:01.494Z,93
2023-02-24T03:49:01.490Z,93
2023-02-24T03:50:01.521Z,93
2023-02-24T03:51:01.478Z,93.1
2023-02-24T03:52:01.472Z,93.4
2023-02-24T03:53:01.549Z,93.3
2023-02-24T03:54:01.490Z,93.3
2023-02-24T03:55:01.476Z,93.3
2023-02-24T03:56:01.493Z,93.4
2023-02-24T03:57:01.499Z,93.3
2023-02-24T03:58:01.497Z,93.3
2023-02-24T03:59:01.503Z,93.3
2023-02-24T04:00:01.662Z,93.4
2023-02-24T04:01:01.521Z,93.4
2023-02-24T04:02:01.525Z,93.4
2023-02-24T04:03:01.509Z,93.3
2023-02-24T04:04:01.547Z,93.3
2023-02-24T04:05:01.585Z,93.4
2023-02-24T04:06:01.526Z,93.4
2023-02-24T04:07:01.483Z,93.4
2023-02-24T04:08:01.508Z,93.4
2023-02-24T04:09:01.509Z,93.4
2023-02-24T04:10:01.564Z,93.4
2023-02-24T04:11:01.523Z,93.4
2023-02-24T04:12:01.498Z,93.4
2023-02-24T04:13:01.518Z,93.7
2023-02-24T04:14:01.500Z,93.7
2023-02-24T04:15:01.517Z,93.7
2023-02-24T04:16:01.624Z,93.4
2023-02-24T04:17:01.495Z,93.4
2023-02-24T04:18:01.519Z,93.4
2023-02-24T04:19:01.509Z,93.4
2023-02-24T04:20:01.530Z,93.4
2023-02-24T04:21:01.530Z,93.4
2023-02-24T04:22:01.509Z,93.4
2023-02-24T04:23:01.532Z,93.4
2023-02-24T04:24:01.511Z,93.4
2023-02-24T04:25:01.550Z,93.4
2023-02-24T04:26:01.532Z,93.7
2023-02-24T04:27:01.532Z,93.7
2023-02-24T04:28:01.544Z,93.7
2023-02-24T04:29:01.522Z,93.7
2023-02-24T04:30:01.585Z,93.7
2023-02-24T04:31:01.614Z,93.7
2023-02-24T04:32:01.722Z,93.3
2023-02-24T04:33:01.524Z,93.3
2023-02-24T04:34:01.548Z,93.6
2023-02-24T04:35:01.514Z,93.7
2023-02-24T04:36:01.541Z,93.6
2023-02-24T04:37:01.526Z,93.4
2023-02-24T04:38:01.543Z,93.3
2023-02-24T04:39:01.528Z,93.3
2023-02-24T04:40:01.554Z,93.3
2023-02-24T04:41:01.559Z,93.6
2023-02-24T04:42:01.584Z,93.3
2023-02-24T04:43:01.557Z,93.6
2023-02-24T04:44:01.546Z,93.7
2023-02-24T04:45:01.544Z,93.6
2023-02-24T04:46:01.601Z,93.6
2023-02-24T04:47:01.535Z,93.6
2023-02-24T04:48:01.545Z,93.6
2023-02-24T04:49:01.544Z,93.3
2023-02-24T04:50:01.561Z,93.3
2023-02-24T04:51:01.566Z,93.3
2023-02-24T04:52:01.543Z,93.3
2023-02-24T04:53:01.577Z,93.3
2023-02-24T04:54:01.560Z,93
2023-02-24T04:55:01.578Z,93
2023-02-24T04:56:01.571Z,93
2023-02-24T04:57:01.546Z,92.7
2023-02-24T04:58:01.540Z,93
2023-02-24T04:59:01.555Z,93
2023-02-24T05:00:01.706Z,92.7
2023-02-24T05:01:01.570Z,93
2023-02-24T05:02:01.718Z,93
2023-02-24T05:03:01.579Z,93.3
2023-02-24T05:04:01.657Z,93.3
2023-02-24T05:05:01.608Z,93.3
2023-02-24T05:06:01.647Z,93.3
2023-02-24T05:07:01.565Z,93.3
2023-02-24T05:08:01.609Z,93.2
2023-02-24T05:09:01.614Z,92.9
2023-02-24T05:10:01.635Z,92.9
2023-02-24T05:11:01.593Z,93.2
2023-02-24T05:12:01.603Z,92.6
2023-02-24T05:13:02.590Z,92.9
2023-02-24T05:14:01.576Z,93.2
2023-02-24T05:15:00.596Z,93.2
2023-02-24T05:16:00.667Z,93.2
2023-02-24T05:17:00.746Z,93.2
2023-02-24T05:18:00.578Z,93.2
2023-02-24T05:19:00.578Z,93.6
2023-02-24T05:20:00.721Z,93.5
2023-02-24T05:21:01.880Z,93.5
2023-02-24T05:22:00.588Z,93.5
2023-02-24T05:23:00.596Z,93.5
2023-02-24T05:24:00.582Z,93.5
2023-02-24T05:25:00.587Z,93.9
2023-02-24T05:26:00.575Z,93.8
2023-02-24T05:27:00.635Z,93.9
2023-02-24T05:28:00.576Z,93.9
2023-02-24T05:29:00.618Z,93.9
2023-02-24T05:30:00.787Z,93.9
2023-02-24T05:31:00.753Z,93.9
2023-02-24T05:32:00.807Z,93.9
2023-02-24T05:33:00.589Z,93.9
2023-02-24T05:34:00.614Z,93.9
2023-02-24T05:35:00.601Z,93.9
2023-02-24T05:36:00.611Z,93.9
2023-02-24T05:37:00.599Z,93.9
2023-02-24T05:38:00.605Z,93.9
2023-02-24T05:39:00.604Z,93.9
2023-02-24T05:40:00.643Z,93.9
2023-02-24T05:41:00.633Z,93.9
2023-02-24T05:42:00.616Z,93.5
2023-02-24T05:43:00.638Z,93.5
2023-02-24T05:44:00.602Z,93.3
2023-02-24T05:45:00.585Z,93.2
2023-02-24T05:46:00.771Z,93.2
2023-02-24T05:47:00.849Z,93.2
2023-02-24T05:48:00.601Z,93.2
2023-02-24T05:49:00.682Z,93.2
2023-02-24T05:50:00.696Z,93.2
2023-02-24T05:51:00.692Z,93.2
2023-02-24T05:52:00.600Z,93.2
2023-02-24T05:53:00.739Z,93.2
2023-02-24T05:54:00.746Z,93.2
2023-02-24T05:55:00.704Z,93.2
2023-02-24T05:56:00.703Z,93.2
2023-02-24T05:57:00.625Z,93.2
2023-02-24T05:58:00.709Z,93.2
2023-02-24T05:59:00.617Z,93.2
2023-02-24T06:00:00.919Z,93.2
2023-02-24T06:01:00.619Z,93.2
2023-02-24T06:02:00.731Z,93.2
2023-02-24T06:03:00.723Z,93.2
2023-02-24T06:04:00.707Z,93.2
2023-02-24T06:05:00.772Z,93.2
2023-02-24T06:06:01.698Z,93.2
2023-02-24T06:07:00.779Z,93.2
2023-02-24T06:08:00.749Z,93.2
2023-02-24T06:09:00.771Z,93.2
2023-02-24T06:10:02.558Z,92.9
2023-02-24T06:11:00.728Z,92.5
2023-02-24T06:12:00.832Z,92.9
2023-02-24T06:13:00.751Z,92.9
2023-02-24T06:14:00.766Z,92.8
2023-02-24T06:15:00.813Z,92.9
2023-02-24T06:16:00.736Z,92.5
2023-02-24T06:17:00.842Z,92.8
2023-02-24T06:18:00.766Z,92.8
2023-02-24T06:19:00.659Z,92.8
2023-02-24T06:20:00.928Z,92.5
2023-02-24T06:21:00.802Z,92.8
2023-02-24T06:22:00.784Z,92.5
2023-02-24T06:23:00.774Z,92.8
2023-02-24T06:24:00.687Z,92.8
2023-02-24T06:25:00.741Z,92.8
2023-02-24T06:26:00.775Z,92.5
2023-02-24T06:27:00.837Z,92.5
2023-02-24T06:28:00.872Z,92.5
2023-02-24T06:29:00.792Z,92.5
2023-02-24T06:30:00.912Z,92.5
2023-02-24T06:31:00.849Z,92.5
2023-02-24T06:32:00.986Z,92.5
2023-02-24T06:33:00.822Z,92.6
2023-02-24T06:34:00.681Z,93.1
2023-02-24T06:35:00.789Z,93.1
2023-02-24T06:36:00.779Z,93.1
2023-02-24T06:37:00.740Z,93.4
2023-02-24T06:38:00.760Z,93.7
2023-02-24T06:39:00.862Z,93.7
2023-02-24T06:40:00.914Z,94
2023-02-24T06:41:01.795Z,94
2023-02-24T06:42:00.850Z,94.3
2023-02-24T06:43:00.756Z,94.4
2023-02-24T06:44:00.874Z,94.4
2023-02-24T06:45:00.970Z,94
2023-02-24T06:46:00.781Z,94
2023-02-24T06:47:00.765Z,93.7
2023-02-24T06:48:00.805Z,93.7
2023-02-24T06:49:00.728Z,93.7
2023-02-24T06:50:00.930Z,93.7
2023-02-24T06:51:00.857Z,93.7
2023-02-24T06:52:00.785Z,93.7
2023-02-24T06:53:01.093Z,93.7
2023-02-24T06:54:00.746Z,93.7
2023-02-24T06:55:00.876Z,93.7
2023-02-24T06:56:00.795Z,93.7
2023-02-24T06:57:00.674Z,94
2023-02-24T06:58:00.670Z,94
2023-02-24T06:59:00.823Z,94.1
2023-02-24T07:00:00.794Z,94.1
2023-02-24T07:01:00.928Z,94.1
2023-02-24T07:02:00.903Z,94.1
2023-02-24T07:03:00.679Z,94
2023-02-24T07:04:00.939Z,94.1
2023-02-24T07:05:00.829Z,93.7
2023-02-24T07:06:00.794Z,93.8
2023-02-24T07:07:00.849Z,93.8
2023-02-24T07:08:00.853Z,93.8
2023-02-24T07:09:00.755Z,93.8
2023-02-24T07:10:00.898Z,93.8
2023-02-24T07:11:00.739Z,93.8
2023-02-24T07:12:00.813Z,93.8
2023-02-24T07:13:00.762Z,93.8
2023-02-24T07:14:00.810Z,93.8
2023-02-24T07:15:00.814Z,93.8
2023-02-24T07:16:00.744Z,94.1
2023-02-24T07:17:00.868Z,93.8
2023-02-24T07:18:00.774Z,93.8
2023-02-24T07:19:00.691Z,93.8
2023-02-24T07:20:00.721Z,93.8
2023-02-24T07:21:00.701Z,93.8
2023-02-24T07:22:00.706Z,93.8
2023-02-24T07:23:00.710Z,94.1
2023-02-24T07:24:00.711Z,94.2
2023-02-24T07:25:00.885Z,94.2
2023-02-24T07:26:00.718Z,94.2
2023-02-24T07:27:00.693Z,93.9
2023-02-24T07:28:00.724Z,93.8
2023-02-24T07:29:00.746Z,93.9
2023-02-24T07:30:00.734Z,93.9
2023-02-24T07:31:00.843Z,93.9
2023-02-24T07:32:00.990Z,93.9
2023-02-24T07:33:00.751Z,94.2
2023-02-24T07:34:00.735Z,93.9
2023-02-24T07:35:00.718Z,93.9
2023-02-24T07:36:00.705Z,93.9
2023-02-24T07:37:00.699Z,93.9
2023-02-24T07:38:00.718Z,93.6
2023-02-24T07:39:00.705Z,93.6
2023-02-24T07:40:00.744Z,93.7
2023-02-24T07:41:00.714Z,94
2023-02-24T07:42:00.702Z,94
2023-02-24T07:43:00.724Z,94
2023-02-24T07:44:00.702Z,94
2023-02-24T07:45:00.773Z,94
2023-02-24T07:46:00.763Z,94
2023-02-24T07:47:00.734Z,94
2023-02-24T07:48:01.438Z,94.3
2023-02-24T07:49:00.721Z,94.1
2023-02-24T07:50:00.729Z,94.1
2023-02-24T07:51:00.737Z,94.1
2023-02-24T07:52:00.722Z,94.1
2023-02-24T07:53:00.723Z,93.5
2023-02-24T07:54:00.715Z,93.5
2023-02-24T07:55:00.744Z,93.5
2023-02-24T07:56:00.711Z,93.2
2023-02-24T07:57:00.721Z,93.5
2023-02-24T07:58:00.749Z,93.9
2023-02-24T07:59:00.750Z,94.2
2023-02-24T08:00:00.742Z,93.6
2023-02-24T08:01:00.743Z,93.3
2023-02-24T08:02:00.754Z,93.6
2023-02-24T08:03:00.753Z,93.6
2023-02-24T08:04:00.735Z,93.6
2023-02-24T08:05:00.740Z,93
2023-02-24T08:06:00.737Z,93.1
2023-02-24T08:07:01.334Z,92.5
2023-02-24T08:08:00.738Z,92.1
2023-02-24T08:09:00.749Z,92.1
2023-02-24T08:10:00.724Z,92.5
2023-02-24T08:11:00.724Z,91.9
2023-02-24T08:12:00.744Z,91.6
2023-02-24T08:13:00.756Z,90.9
2023-02-24T08:14:00.743Z,91.3
2023-02-24T08:15:00.747Z,91
2023-02-24T08:16:00.801Z,91.3
2023-02-24T08:17:00.750Z,91.9
2023-02-24T08:18:00.749Z,92
2023-02-24T08:19:00.749Z,92
2023-02-24T08:20:00.741Z,92
2023-02-24T08:21:00.748Z,91.7
2023-02-24T08:22:00.762Z,91.7
2023-02-24T08:23:00.842Z,91.4
2023-02-24T08:24:00.763Z,91.4
2023-02-24T08:25:01.154Z,91.7
2023-02-24T08:26:00.780Z,91.4
2023-02-24T08:27:00.763Z,91.4
2023-02-24T08:28:07.969Z,91.4
2023-02-24T08:29:00.762Z,89.9
2023-02-24T08:30:00.782Z,90.2
2023-02-24T08:31:00.846Z,90.5
2023-02-24T08:32:00.962Z,90.5
2023-02-24T08:33:00.772Z,90.9
2023-02-24T08:34:00.755Z,90.9
2023-02-24T08:35:00.787Z,90.3
2023-02-24T08:36:01.706Z,90.3
2023-02-24T08:37:00.760Z,89.6
2023-02-24T08:38:00.821Z,89.7
2023-02-24T08:39:01.277Z,89.1
2023-02-24T08:40:01.372Z,89.1
2023-02-24T08:41:00.995Z,89.4
2023-02-24T08:42:00.775Z,89.1
2023-02-24T08:43:00.796Z,88.8
2023-02-24T08:44:00.767Z,88.8
2023-02-24T08:45:00.802Z,88.2
2023-02-24T08:46:00.787Z,87.9
2023-02-24T08:47:00.856Z,88.5
2023-02-24T08:48:00.830Z,88.5
2023-02-24T08:49:00.968Z,87.9
2023-02-24T08:50:00.791Z,87.6
2023-02-24T08:51:00.785Z,87.3
2023-02-24T08:52:00.778Z,87.6
2023-02-24T08:53:00.792Z,87.3
2023-02-24T08:54:00.819Z,87.9
2023-02-24T08:55:00.795Z,87.4
2023-02-24T08:56:00.807Z,87.3
2023-02-24T08:57:00.785Z,87.3
2023-02-24T08:58:00.791Z,87.3
2023-02-24T08:59:00.793Z,87.4
2023-02-24T09:00:00.825Z,86.4
2023-02-24T09:01:00.931Z,87.1
2023-02-24T09:02:04.671Z,87.4
2023-02-24T09:03:00.784Z,87.4
2023-02-24T09:04:00.803Z,87.1
2023-02-24T09:05:00.874Z,86.8
2023-02-24T09:06:01.283Z,86.8
2023-02-24T09:07:11.338Z,86.2
2023-02-24T09:08:00.793Z,85.5
2023-02-24T09:09:00.797Z,85.5
2023-02-24T09:10:00.822Z,86.2
2023-02-24T09:11:00.837Z,86.2
2023-02-24T09:12:00.797Z,86.2
2023-02-24T09:13:00.813Z,86.2
2023-02-24T09:14:00.820Z,85.6
2023-02-24T09:15:00.825Z,85.3
2023-02-24T09:16:00.890Z,85
2023-02-24T09:17:00.810Z,85
2023-02-24T09:18:00.814Z,85
2023-02-24T09:19:00.821Z,84.7
2023-02-24T09:20:02.395Z,84.7
2023-02-24T09:21:00.807Z,84.4
2023-02-24T09:22:01.841Z,84.1
2023-02-24T09:23:00.849Z,84.4
2023-02-24T09:24:00.827Z,84.4
2023-02-24T09:25:00.842Z,84.4
2023-02-24T09:26:00.901Z,84.1
2023-02-24T09:27:00.826Z,83.4
2023-02-24T09:28:00.829Z,83.5
2023-02-24T09:29:00.831Z,83.5
2023-02-24T09:30:00.833Z,83.5
2023-02-24T09:31:00.926Z,83.2
2023-02-24T09:32:00.962Z,82.8
2023-02-24T09:33:01.583Z,83.2
2023-02-24T09:34:01.406Z,83.1
2023-02-24T09:35:00.829Z,83.2
2023-02-24T09:36:00.835Z,83.2
2023-02-24T09:37:00.846Z,83.5
2023-02-24T09:38:00.863Z,83.5
2023-02-24T09:39:01.097Z,82.8
2023-02-24T09:40:00.839Z,83.2
2023-02-24T09:41:07.411Z,83.2
2023-02-24T09:42:00.834Z,82.6
2023-02-24T09:43:01.273Z,83.2
2023-02-24T09:44:00.857Z,82.6
2023-02-24T09:45:00.847Z,82.3
2023-02-24T09:46:00.994Z,82.6
2023-02-24T09:47:00.847Z,82.6
2023-02-24T09:48:00.866Z,82
2023-02-24T09:49:00.849Z,82
2023-02-24T09:50:00.833Z,81.4
2023-02-24T09:51:03.890Z,80.8
2023-02-24T09:52:00.945Z,80.8
2023-02-24T09:53:10.788Z,80.8
2023-02-24T09:54:00.842Z,80.8
2023-02-24T09:55:00.858Z,81.1
2023-02-24T09:56:00.865Z,80.8
2023-02-24T09:57:00.851Z,80.5
2023-02-24T09:58:00.880Z,80.5
2023-02-24T09:59:00.870Z,80.5
2023-02-24T10:00:00.922Z,80.8
2023-02-24T10:01:00.954Z,80.2
2023-02-24T10:02:00.913Z,80.2
2023-02-24T10:03:00.857Z,80.2
2023-02-24T10:04:02.405Z,80.2
2023-02-24T10:05:00.842Z,80.2
2023-02-24T10:06:00.854Z,80.2
2023-02-24T10:07:01.022Z,80.2
2023-02-24T10:08:00.884Z,80.2
2023-02-24T10:09:00.863Z,79.5
2023-02-24T10:10:00.851Z,79.8
2023-02-24T10:11:01.084Z,80.1
2023-02-24T10:12:00.862Z,79.5
2023-02-24T10:13:01.377Z,79.5
2023-02-24T10:14:03.801Z,80.1
2023-02-24T10:15:00.931Z,80.4
2023-02-24T10:16:06.249Z,80.7
2023-02-24T10:17:01.674Z,80.7
2023-02-24T10:18:00.889Z,80.7
2023-02-24T10:19:00.924Z,80.7
2023-02-24T10:20:00.879Z,81.1
2023-02-24T10:21:00.950Z,81.4
2023-02-24T10:22:00.892Z,81.4
2023-02-24T10:23:00.897Z,80.8
2023-02-24T10:24:00.878Z,80.8
2023-02-24T10:25:00.881Z,80.8
2023-02-24T10:26:06.770Z,81.1
2023-02-24T10:27:07.979Z,80.5
2023-02-24T10:28:00.920Z,79.6
2023-02-24T10:29:00.909Z,80.2
2023-02-24T10:30:00.932Z,78.6
2023-02-24T10:31:00.965Z,79.6
2023-02-24T10:32:01.305Z,79.6
2023-02-24T10:33:01.210Z,79
2023-02-24T10:34:01.012Z,79
2023-02-24T10:35:00.958Z,79.6
2023-02-24T10:36:01.030Z,79
2023-02-24T10:37:00.947Z,78.4
2023-02-24T10:38:00.902Z,78.7
2023-02-24T10:39:01.409Z,78.3
2023-02-24T10:40:00.898Z,78.7
2023-02-24T10:41:00.952Z,78.7
2023-02-24T10:42:00.997Z,78.4
2023-02-24T10:43:00.910Z,78.4
2023-02-24T10:44:01.021Z,78.4
2023-02-24T10:45:02.517Z,77.8
2023-02-24T10:46:01.068Z,77.1
2023-02-24T10:47:01.045Z,77.1
2023-02-24T10:48:01.080Z,76.8
2023-02-24T10:49:01.087Z,77.7
2023-02-24T10:50:01.034Z,77.1
2023-02-24T10:51:01.045Z,77.1
2023-02-24T10:52:01.126Z,77.4
2023-02-24T10:53:01.033Z,77.7
2023-02-24T10:54:00.928Z,77.7
2023-02-24T10:55:00.910Z,77.7
2023-02-24T10:56:00.978Z,77.8
2023-02-24T10:57:01.076Z,78.1
2023-02-24T10:58:01.060Z,78.7
2023-02-24T10:59:01.857Z,78.4
2023-02-24T11:00:01.040Z,77.8
2023-02-24T11:01:01.185Z,77.5
2023-02-24T11:02:01.573Z,77.8
2023-02-24T11:03:01.962Z,77.2
2023-02-24T11:04:01.355Z,77.2
2023-02-24T11:05:02.373Z,76.6
2023-02-24T11:06:01.494Z,77.2
2023-02-24T11:07:01.091Z,76
2023-02-24T11:08:00.956Z,76
2023-02-24T11:09:00.934Z,75.3
2023-02-24T11:10:01.104Z,75.3
2023-02-24T11:11:01.085Z,75.3
2023-02-24T11:12:01.493Z,75.3
2023-02-24T11:13:09.251Z,75.3
2023-02-24T11:14:01.066Z,75.3
2023-02-24T11:15:01.068Z,75.9
2023-02-24T11:16:01.141Z,75.9
2023-02-24T11:17:01.050Z,75.6
2023-02-24T11:18:01.037Z,75.9
2023-02-24T11:19:00.943Z,75.9
2023-02-24T11:20:01.630Z,75.9
2023-02-24T11:21:00.995Z,75.9
2023-02-24T11:22:00.882Z,76.5
2023-02-24T11:23:01.127Z,76.5
2023-02-24T11:24:00.944Z,76.5
2023-02-24T11:25:01.876Z,76.5
2023-02-24T11:26:00.786Z,76.8
2023-02-24T11:27:02.892Z,76.2
2023-02-24T11:28:00.755Z,76.5
2023-02-24T11:29:00.672Z,77.1
2023-02-24T11:30:00.613Z,77.1
2023-02-24T11:31:00.753Z,77.1
2023-02-24T11:32:00.810Z,77.1
2023-02-24T11:33:00.716Z,77.1
2023-02-24T11:34:00.533Z,77.7
2023-02-24T11:35:00.616Z,77.7
2023-02-24T11:36:00.638Z,77.7
2023-02-24T11:37:00.549Z,77.7
2023-02-24T11:38:00.548Z,77.1
2023-02-24T11:39:15.267Z,77.1
2023-02-24T11:40:00.555Z,77.4
2023-02-24T11:41:00.537Z,77.7
2023-02-24T11:42:00.548Z,77.7
2023-02-24T11:43:00.517Z,77.7
2023-02-24T11:44:00.523Z,77.8
2023-02-24T11:45:00.547Z,77.7
2023-02-24T11:46:00.671Z,77.8
2023-02-24T11:47:00.523Z,77.7
2023-02-24T11:48:00.556Z,77.8
2023-02-24T11:49:00.571Z,78.1
2023-02-24T11:50:00.546Z,77.8
2023-02-24T11:51:00.532Z,78.1
2023-02-24T11:52:00.536Z,77.8
2023-02-24T11:53:00.544Z,77.2
2023-02-24T11:54:00.616Z,77.2
2023-02-24T11:55:00.596Z,77.2
2023-02-24T11:56:00.565Z,77.2
2023-02-24T11:57:00.586Z,76.6
2023-02-24T11:58:00.550Z,76
2023-02-24T11:59:00.546Z,75.7
2023-02-24T12:00:00.557Z,76.6
2023-02-24T12:01:00.569Z,76.3
2023-02-24T12:02:00.540Z,76.3
2023-02-24T12:03:02.295Z,76
2023-02-24T12:04:00.564Z,75.7
2023-02-24T12:05:00.572Z,74.8
2023-02-24T12:06:00.626Z,75.4
2023-02-24T12:07:00.554Z,75.4
2023-02-24T12:08:00.555Z,74.8
2023-02-24T12:09:00.561Z,74.2
2023-02-24T12:10:15.658Z,74.2
2023-02-24T12:11:00.592Z,74.2
2023-02-24T12:12:00.631Z,74.2
2023-02-24T12:13:00.578Z,73.6
2023-02-24T12:14:00.574Z,73
2023-02-24T12:15:00.589Z,72.6
2023-02-24T12:16:00.641Z,73.6
2023-02-24T12:17:00.824Z,73.6
2023-02-24T12:18:00.571Z,73.6
2023-02-24T12:19:00.557Z,73
2023-02-24T12:20:00.620Z,72.4
2023-02-24T12:21:00.573Z,71.1
2023-02-24T12:22:00.559Z,71.1
2023-02-24T12:23:00.566Z,72.4
2023-02-24T12:24:00.864Z,72.4
2023-02-24T12:25:00.600Z,71.7
2023-02-24T12:26:01.194Z,71.7
2023-02-24T12:27:01.055Z,71.7
2023-02-24T12:28:01.004Z,71.7
2023-02-24T12:29:00.586Z,72.3
2023-02-24T12:30:00.665Z,72
2023-02-24T12:31:01.062Z,72.4
2023-02-24T12:32:01.263Z,71.7
2023-02-24T12:33:01.113Z,71.7
2023-02-24T12:34:01.052Z,71.4
2023-02-24T12:35:01.132Z,71.1
2023-02-24T12:36:00.575Z,71.7
2023-02-24T12:37:00.585Z,71.7
2023-02-24T12:38:00.591Z,71.4
2023-02-24T12:39:01.019Z,71.1
2023-02-24T12:40:00.619Z,71.4
2023-02-24T12:41:01.112Z,71.7
2023-02-24T12:42:00.990Z,71.7
2023-02-24T12:43:00.584Z,71.7
2023-02-24T12:44:00.610Z,71.7
2023-02-24T12:45:01.191Z,72
2023-02-24T12:46:00.652Z,72
2023-02-24T12:47:00.591Z,72.4
2023-02-24T12:48:00.608Z,72.4
2023-02-24T12:49:01.159Z,72.1
2023-02-24T12:50:01.129Z,71.1
2023-02-24T12:51:01.008Z,70.8
2023-02-24T12:52:00.592Z,71.8
2023-02-24T12:53:01.007Z,71.7
2023-02-24T12:54:00.645Z,70.5
2023-02-24T12:55:00.616Z,70.8
2023-02-24T12:56:00.602Z,71.1
2023-02-24T12:57:00.594Z,71.1
2023-02-24T12:58:00.607Z,71.1
2023-02-24T12:59:00.677Z,70.8
2023-02-24T13:00:00.779Z,70.5
2023-02-24T13:01:00.645Z,70.5
2023-02-24T13:02:00.698Z,69.9
2023-02-24T13:03:00.612Z,70.2
2023-02-24T13:04:00.611Z,69.6
2023-02-24T13:05:00.640Z,70.3
2023-02-24T13:06:00.606Z,70.6
2023-02-24T13:07:00.616Z,70
2023-02-24T13:08:00.605Z,69.4
2023-02-24T13:09:00.647Z,68.7
2023-02-24T13:10:00.742Z,68.1
2023-02-24T13:11:00.642Z,68.7
2023-02-24T13:12:00.623Z,68.1
2023-02-24T13:13:00.617Z,66.8
2023-02-24T13:14:00.612Z,66.8
2023-02-24T13:15:00.661Z,66.8
2023-02-24T13:16:00.620Z,66.8
2023-02-24T13:17:00.670Z,67.5
2023-02-24T13:18:00.616Z,66.5
2023-02-24T13:19:00.624Z,68.1
2023-02-24T13:20:00.667Z,67.8
2023-02-24T13:21:00.616Z,67.2
2023-02-24T13:22:00.621Z,68.1
2023-02-24T13:23:00.644Z,67.8